Time;durP1;ratioP1;P1;durP2;ratioP2;P2;SDS_P1;SDS_P2;PMS_P1;PMS_P2;Temp;Humidity;BMP_temperature;BMP_pressure;BME280_temperature;BME280_humidity;BME280_pressure;Samples;Min_cycle;Max_cycle;Signal;HPM_P1;HPM_P2
2021/04/20 00:01:46;;;;;;;27.63;24.45;;;;;;;;;;10036930;29;20071;-62
2021/04/20 00:06:44;;;;;;;26.60;23.55;;;;;;;;;;10037404;29;20090;-61
2021/04/20 00:11:42;;;;;;;26.98;24.17;;;;;;;;;;10037380;29;20075;-61
2021/04/20 00:16:39;;;;;;;26.60;23.80;;;;;;;;;;10036650;29;20075;-62
2021/04/20 00:21:36;;;;;;;27.02;24.25;;;;;;;;;;10038469;29;20082;-61
2021/04/20 00:26:35;;;;;;;26.23;23.50;;;;;;;;;;10049229;29;20502;-61
2021/04/20 00:31:32;;;;;;;28.08;25.15;;;;;;;;;;10050004;29;20087;-62
2021/04/20 00:36:30;;;;;;;31.48;25.30;;;;;;;;;;10049949;29;20051;-61
2021/04/20 00:41:27;;;;;;;29.30;26.15;;;;;;;;;;10050398;29;20521;-61
2021/04/20 00:46:25;;;;;;;29.20;25.67;;;;;;;;;;10050594;29;20083;-61
2021/04/20 00:51:23;;;;;;;28.45;24.98;;;;;;;;;;10050445;29;20043;-61
2021/04/20 00:56:20;;;;;;;27.33;24.33;;;;;;;;;;10048638;29;20051;-61
2021/04/20 01:01:18;;;;;;;26.58;21.38;;;;;;;;;;10050104;29;20513;-61
2021/04/20 01:06:16;;;;;;;28.88;24.30;;;;;;;;;;10049960;29;20063;-60
2021/04/20 01:11:14;;;;;;;29.20;24.08;;;;;;;;;;10050086;29;20051;-59
2021/04/20 01:16:12;;;;;;;28.20;25.17;;;;;;;;;;10050106;29;20075;-60
2021/04/20 01:21:10;;;;;;;30.75;25.90;;;;;;;;;;10049947;29;20098;-60
2021/04/20 01:26:10;;;;;;;28.13;25.10;;;;;;;;;;10048785;29;20086;-60
2021/04/20 01:31:08;;;;;;;29.05;25.83;;;;;;;;;;10049462;29;20087;-61
2021/04/20 01:36:06;;;;;;;31.00;24.85;;;;;;;;;;10046544;29;20079;-60
2021/04/20 01:41:03;;;;;;;27.92;25.00;;;;;;;;;;10043165;29;20493;-61
2021/04/20 01:46:01;;;;;;;29.67;25.17;;;;;;;;;;10043251;29;20133;-60
2021/04/20 01:50:59;;;;;;;35.20;27.45;;;;;;;;;;10043229;29;20048;-61
2021/04/20 01:55:57;;;;;;;29.73;25.08;;;;;;;;;;10042291;29;20075;-60
2021/04/20 02:00:55;;;;;;;29.52;24.60;;;;;;;;;;10042246;29;20087;-60
2021/04/20 02:05:53;;;;;;;29.25;26.10;;;;;;;;;;10042542;29;20075;-60
2021/04/20 02:10:51;;;;;;;33.00;27.13;;;;;;;;;;10042610;29;20075;-61
2021/04/20 02:15:48;;;;;;;29.70;25.73;;;;;;;;;;10041201;29;20060;-62
2021/04/20 02:20:45;;;;;;;32.17;26.98;;;;;;;;;;10041903;29;20079;-62
2021/04/20 02:25:44;;;;;;;31.75;27.00;;;;;;;;;;10041889;29;20075;-61
2021/04/20 02:30:42;;;;;;;31.77;28.38;;;;;;;;;;10040640;29;20087;-62
2021/04/20 02:35:39;;;;;;;33.85;29.40;;;;;;;;;;10041067;29;20086;-62
2021/04/20 02:40:37;;;;;;;38.30;32.90;;;;;;;;;;10040701;29;20083;-62
2021/04/20 02:45:36;;;;;;;35.25;29.95;;;;;;;;;;10039567;29;20064;-60
2021/04/20 02:50:33;;;;;;;37.10;29.38;;;;;;;;;;10040759;29;20498;-60
2021/04/20 02:55:31;;;;;;;31.90;27.15;;;;;;;;;;10040631;29;20071;-60
2021/04/20 03:00:28;;;;;;;28.60;25.50;;;;;;;;;;10039544;29;20294;-60
2021/04/20 03:05:28;;;;;;;37.63;29.77;;;;;;;;;;10040035;29;20051;-60
2021/04/20 03:10:26;;;;;;;33.33;29.02;;;;;;;;;;10039685;29;20048;-59
2021/04/20 03:15:24;;;;;;;41.22;37.03;;;;;;;;;;10039770;29;20051;-60
2021/04/20 03:20:21;;;;;;;32.50;27.65;;;;;;;;;;10038847;29;20095;-60
2021/04/20 03:25:24;;;;;;;31.20;27.85;;;;;;;;;;10039260;29;20059;-60
2021/04/20 03:30:23;;;;;;;50.58;42.38;;;;;;;;;;10039361;29;20505;-60
2021/04/20 03:35:24;;;;;;;46.53;41.95;;;;;;;;;;10038924;29;20618;-60
2021/04/20 03:40:22;;;;;;;33.83;29.85;;;;;;;;;;10039204;29;20090;-60
2021/04/20 03:45:22;;;;;;;32.97;29.45;;;;;;;;;;10038083;29;20062;-60
2021/04/20 03:50:20;;;;;;;35.95;31.42;;;;;;;;;;10035121;29;20082;-61
2021/04/20 03:55:19;;;;;;;32.92;29.33;;;;;;;;;;10036743;29;20047;-61
2021/04/20 04:00:17;;;;;;;33.45;29.77;;;;;;;;;;10034783;29;20086;-60
2021/04/20 04:05:17;;;;;;;34.13;30.42;;;;;;;;;;10034338;29;20052;-59
2021/04/20 04:10:14;;;;;;;38.42;32.40;;;;;;;;;;10035999;29;20090;-60
2021/04/20 04:15:14;;;;;;;38.90;32.38;;;;;;;;;;10036627;29;20525;-60
2021/04/20 04:20:13;;;;;;;48.05;35.90;;;;;;;;;;10036185;29;20086;-61
2021/04/20 04:25:14;;;;;;;39.40;31.55;;;;;;;;;;10035401;29;20091;-62
2021/04/20 04:30:12;;;;;;;33.65;27.80;;;;;;;;;;10035760;29;20091;-61
2021/04/20 04:35:10;;;;;;;36.35;29.15;;;;;;;;;;10034835;29;20087;-61
2021/04/20 04:40:09;;;;;;;36.97;33.05;;;;;;;;;;10034816;29;20085;-61
2021/04/20 04:45:08;;;;;;;39.00;32.58;;;;;;;;;;10035862;29;20117;-61
2021/04/20 04:50:07;;;;;;;34.40;29.17;;;;;;;;;;10035753;29;20079;-61
2021/04/20 04:55:04;;;;;;;35.50;30.17;;;;;;;;;;10034750;29;20083;-61
2021/04/20 05:00:04;;;;;;;43.97;39.03;;;;;;;;;;10035238;29;20083;-61
2021/04/20 05:05:06;;;;;;;37.67;30.98;;;;;;;;;;10035309;29;20090;-61
2021/04/20 05:10:05;;;;;;;39.10;32.90;;;;;;;;;;10037321;29;20560;-62
2021/04/20 05:15:06;;;;;;;38.50;31.00;;;;;;;;;;10042433;29;20087;-61
2021/04/20 05:20:07;;;;;;;32.35;28.25;;;;;;;;;;10042502;29;20106;-61
2021/04/20 05:25:06;;;;;;;34.72;29.30;;;;;;;;;;10042381;29;20401;-60
2021/04/20 05:30:04;;;;;;;35.65;28.38;;;;;;;;;;10041800;29;20090;-61
2021/04/20 05:35:01;;;;;;;33.28;28.23;;;;;;;;;;10041602;29;20090;-61
2021/04/20 05:40:07;;;;;;;38.63;29.65;;;;;;;;;;10041061;29;20502;-61
2021/04/20 05:45:05;;;;;;;34.53;27.73;;;;;;;;;;10041746;29;20059;-61
2021/04/20 05:50:04;;;;;;;31.33;27.63;;;;;;;;;;10038408;29;20075;-60
2021/04/20 05:55:01;;;;;;;33.95;28.65;;;;;;;;;;10037155;29;20079;-60
2021/04/20 06:00:00;;;;;;;43.45;32.70;;;;;;;;;;10037447;29;20075;-60
2021/04/20 06:04:58;;;;;;;42.53;35.63;;;;;;;;;;10039785;29;20192;-62
2021/04/20 06:09:56;;;;;;;53.45;41.47;;;;;;;;;;10040526;29;20509;-62
2021/04/20 06:14:54;;;;;;;40.97;33.80;;;;;;;;;;10040387;29;20051;-58
2021/04/20 06:19:52;;;;;;;38.05;31.67;;;;;;;;;;10039964;29;20083;-61
2021/04/20 06:24:50;;;;;;;33.15;27.73;;;;;;;;;;10039329;29;20087;-61
2021/04/20 06:29:47;;;;;;;35.78;30.60;;;;;;;;;;10039676;29;20347;-61
2021/04/20 06:34:44;;;;;;;37.53;30.90;;;;;;;;;;10039734;29;20052;-61
2021/04/20 06:39:43;;;;;;;32.88;29.13;;;;;;;;;;10036822;29;20082;-61
2021/04/20 06:44:43;;;;;;;40.67;31.77;;;;;;;;;;10038793;29;20706;-61
2021/04/20 06:49:43;;;;;;;34.88;31.05;;;;;;;;;;10038896;29;20063;-61
2021/04/20 06:54:47;;;;;;;39.30;31.27;;;;;;;;;;10038877;29;20090;-61
2021/04/20 06:59:48;;;;;;;42.85;34.03;;;;;;;;;;10038999;29;20421;-61
2021/04/20 07:04:46;;;;;;;41.80;31.70;;;;;;;;;;10038666;29;20484;-61
2021/04/20 07:09:46;;;;;;;32.90;28.55;;;;;;;;;;10038019;29;20052;-62
2021/04/20 07:14:47;;;;;;;38.28;32.25;;;;;;;;;;10037179;29;20524;-62
2021/04/20 07:19:52;;;;;;;39.90;31.48;;;;;;;;;;10038006;29;20047;-61
2021/04/20 07:25:01;;;;;;;41.05;32.80;;;;;;;;;;10037990;29;20493;-62
2021/04/20 07:30:05;;;;;;;32.13;28.50;;;;;;;;;;10037138;29;20083;-58
2021/04/20 07:35:15;;;;;;;43.63;33.77;;;;;;;;;;10037315;29;20087;-60
2021/04/20 07:40:23;;;;;;;35.40;30.15;;;;;;;;;;10034661;29;20075;-58
2021/04/20 07:45:24;;;;;;;31.80;28.15;;;;;;;;;;10037608;29;20086;-60
2021/04/20 07:50:24;;;;;;;28.15;25.02;;;;;;;;;;10037235;29;20098;-60
2021/04/20 07:55:24;;;;;;;28.58;24.25;;;;;;;;;;10036777;29;20094;-60
2021/04/20 08:00:23;;;;;;;30.65;25.80;;;;;;;;;;10035742;29;20093;-59
2021/04/20 08:05:23;;;;;;;28.80;25.20;;;;;;;;;;10037035;29;20513;-58
2021/04/20 08:10:24;;;;;;;37.00;30.58;;;;;;;;;;10036592;29;20489;-59
2021/04/20 08:15:26;;;;;;;30.92;27.63;;;;;;;;;;10036376;29;20086;-58
2021/04/20 08:20:25;;;;;;;34.70;27.23;;;;;;;;;;10036726;29;20090;-58
2021/04/20 08:25:24;;;;;;;31.20;27.23;;;;;;;;;;10036056;29;20071;-59
2021/04/20 08:30:27;;;;;;;38.45;32.58;;;;;;;;;;10035514;29;20502;-57
2021/04/20 08:35:27;;;;;;;32.95;29.35;;;;;;;;;;10036147;29;20443;-58
2021/04/20 08:40:28;;;;;;;35.15;30.58;;;;;;;;;;10035502;29;20466;-59
2021/04/20 08:45:38;;;;;;;33.58;29.33;;;;;;;;;;10039557;29;20098;-58
2021/04/20 08:50:38;;;;;;;29.05;25.85;;;;;;;;;;10043983;29;20047;-59
2021/04/20 08:55:40;;;;;;;27.58;24.75;;;;;;;;;;10043651;29;20513;-58
2021/04/20 09:00:40;;;;;;;27.98;24.23;;;;;;;;;;10043650;29;20082;-57
2021/04/20 09:05:42;;;;;;;30.98;26.08;;;;;;;;;;10043412;29;20071;-58
2021/04/20 09:10:43;;;;;;;27.88;24.88;;;;;;;;;;10042864;29;20044;-58
2021/04/20 09:15:46;;;;;;;26.77;22.33;;;;;;;;;;10042844;29;20075;-57
2021/04/20 09:20:48;;;;;;;26.38;23.60;;;;;;;;;;10042707;29;20089;-59
2021/04/20 09:25:50;;;;;;;28.02;24.50;;;;;;;;;;10042305;29;20524;-54
2021/04/20 09:30:49;;;;;;;21.63;19.50;;;;;;;;;;10041677;29;20091;-57
2021/04/20 09:35:47;;;;;;;21.70;19.50;;;;;;;;;;10041766;29;20090;-58
2021/04/20 09:40:46;;;;;;;48.35;43.25;;;;;;;;;;10041888;29;20087;-57
2021/04/20 09:45:46;;;;;;;30.20;25.83;;;;;;;;;;10041790;29;20048;-58
2021/04/20 09:50:49;;;;;;;19.80;17.80;;;;;;;;;;10040995;29;20075;-58
2021/04/20 09:55:50;;;;;;;22.27;19.95;;;;;;;;;;10040392;29;20087;-57
2021/04/20 10:00:48;;;;;;;19.75;17.58;;;;;;;;;;10040924;29;20082;-58
2021/04/20 10:05:57;;;;;;;19.75;17.75;;;;;;;;;;10041090;29;20687;-59
2021/04/20 10:10:57;;;;;;;18.95;16.42;;;;;;;;;;10039559;29;20050;-58
2021/04/20 10:16:00;;;;;;;19.55;17.02;;;;;;;;;;10040931;29;20552;-59
2021/04/20 10:21:03;;;;;;;18.95;16.98;;;;;;;;;;10040725;29;20083;-60
2021/04/20 10:26:04;;;;;;;24.27;21.85;;;;;;;;;;10039573;29;20075;-58
2021/04/20 10:31:07;;;;;;;23.02;18.83;;;;;;;;;;10039293;29;20086;-59
2021/04/20 10:36:05;;;;;;;19.90;17.90;;;;;;;;;;10039543;29;20536;-59
2021/04/20 10:41:03;;;;;;;20.13;17.88;;;;;;;;;;10038805;29;20095;-59
2021/04/20 10:46:08;;;;;;;24.08;18.70;;;;;;;;;;10039664;29;20048;-58
2021/04/20 10:51:07;;;;;;;25.40;21.25;;;;;;;;;;10037192;29;20403;-58
2021/04/20 10:56:06;;;;;;;21.48;19.00;;;;;;;;;;10038465;29;20351;-58
2021/04/20 11:01:04;;;;;;;28.27;23.08;;;;;;;;;;10039382;29;20474;-56
2021/04/20 11:06:02;;;;;;;23.73;19.05;;;;;;;;;;10038959;29;20083;-59
2021/04/20 11:10:59;;;;;;;35.67;26.63;;;;;;;;;;10038566;29;20489;-59
2021/04/20 11:15:57;;;;;;;20.95;17.17;;;;;;;;;;10038698;29;20069;-60
2021/04/20 11:21:00;;;;;;;21.85;17.10;;;;;;;;;;10038016;29;20549;-59
2021/04/20 11:26:00;;;;;;;16.88;15.13;;;;;;;;;;10037240;29;20075;-59
2021/04/20 11:30:59;;;;;;;14.25;11.68;;;;;;;;;;10037291;29;20056;-59
2021/04/20 11:35:59;;;;;;;22.67;20.08;;;;;;;;;;10037780;29;20078;-59
2021/04/20 11:41:01;;;;;;;13.90;12.15;;;;;;;;;;10037408;29;20518;-57
2021/04/20 11:46:00;;;;;;;13.80;12.50;;;;;;;;;;10037533;29;20315;-61
2021/04/20 11:50:59;;;;;;;21.83;18.58;;;;;;;;;;10037418;29;20067;-60
2021/04/20 11:55:58;;;;;;;20.98;18.70;;;;;;;;;;10037211;29;20091;-59
2021/04/20 12:00:58;;;;;;;15.55;12.48;;;;;;;;;;10037038;29;20509;-59
2021/04/20 12:05:57;;;;;;;19.05;17.13;;;;;;;;;;10036857;29;20125;-59
2021/04/20 12:10:56;;;;;;;20.00;17.77;;;;;;;;;;10036496;29;20087;-60
2021/04/20 12:16:05;;;;;;;20.48;18.50;;;;;;;;;;10036330;29;20570;-60
2021/04/20 12:21:05;;;;;;;65.00;40.60;;;;;;;;;;10036448;29;20094;-60
2021/04/20 12:26:04;;;;;;;89.35;55.63;;;;;;;;;;10036850;29;20086;-60
2021/04/20 12:31:02;;;;;;;20.88;18.52;;;;;;;;;;10035519;29;20498;-59
2021/04/20 12:36:00;;;;;;;52.15;34.00;;;;;;;;;;10036238;29;20078;-60
2021/04/20 12:40:59;;;;;;;17.73;14.50;;;;;;;;;;10036184;29;20486;-59
2021/04/20 12:46:03;;;;;;;19.75;15.68;;;;;;;;;;10035957;29;20075;-59
2021/04/20 12:51:03;;;;;;;27.50;18.63;;;;;;;;;;10036235;29;20079;-61
2021/04/20 12:56:01;;;;;;;40.13;26.92;;;;;;;;;;10035563;29;20058;-59
2021/04/20 13:01:00;;;;;;;22.48;16.95;;;;;;;;;;10035871;29;20071;-58
2021/04/20 13:05:59;;;;;;;20.42;17.58;;;;;;;;;;10033350;29;20054;-60
2021/04/20 13:10:57;;;;;;;27.20;19.08;;;;;;;;;;10035575;29;20098;-58
2021/04/20 13:15:59;;;;;;;14.07;12.55;;;;;;;;;;10035567;29;20490;-59
2021/04/20 13:20:58;;;;;;;101.65;61.60;;;;;;;;;;10035456;29;20091;-58
2021/04/20 13:25:59;;;;;;;14.30;12.88;;;;;;;;;;10035300;29;20524;-60
2021/04/20 13:30:56;;;;;;;18.67;15.23;;;;;;;;;;10036541;29;20094;-59
2021/04/20 13:35:55;;;;;;;21.30;16.42;;;;;;;;;;10041803;29;20164;-61
2021/04/20 13:40:52;;;;;;;27.38;18.52;;;;;;;;;;10041998;29;20488;-62
2021/04/20 13:45:52;;;;;;;19.67;17.58;;;;;;;;;;10041812;29;20075;-63
2021/04/20 13:50:50;;;;;;;39.60;25.42;;;;;;;;;;10041639;29;20036;-61
2021/04/20 13:55:48;;;;;;;48.97;33.72;;;;;;;;;;10041374;29;20084;-62
2021/04/20 14:00:45;;;;;;;51.38;33.60;;;;;;;;;;10040970;29;20052;-61
2021/04/20 14:05:44;;;;;;;45.25;25.23;;;;;;;;;;10040048;29;20079;-61
2021/04/20 14:10:43;;;;;;;39.10;22.90;;;;;;;;;;10040911;29;20075;-61
2021/04/20 14:15:41;;;;;;;50.88;41.20;;;;;;;;;;10039444;29;20079;-61
2021/04/20 14:20:40;;;;;;;31.20;27.85;;;;;;;;;;10040111;29;20063;-62
2021/04/20 14:25:39;;;;;;;24.38;20.60;;;;;;;;;;10040061;29;20086;-62
2021/04/20 14:30:36;;;;;;;30.17;22.23;;;;;;;;;;10023391;29;20738;-59
2021/04/20 14:35:36;;;;;;;23.58;18.98;;;;;;;;;;10016925;29;20554;-59
2021/04/20 14:40:33;;;;;;;32.80;23.33;;;;;;;;;;10024675;29;20079;-61
2021/04/20 14:45:37;;;;;;;28.25;22.48;;;;;;;;;;10002100;29;20498;-60
2021/04/20 14:50:35;;;;;;;29.20;24.63;;;;;;;;;;10000569;29;20079;-60
2021/04/20 14:55:35;;;;;;;28.02;23.17;;;;;;;;;;10002123;29;20406;-59
2021/04/20 15:00:33;;;;;;;11.27;9.80;;;;;;;;;;10012797;29;20076;-61
2021/04/20 15:05:32;;;;;;;19.63;17.42;;;;;;;;;;10000544;29;20526;-61
2021/04/20 15:10:32;;;;;;;29.60;22.15;;;;;;;;;;10020376;29;20532;-62
2021/04/20 15:15:31;;;;;;;38.17;34.28;;;;;;;;;;10004619;29;20090;-62
2021/04/20 15:20:29;;;;;;;66.25;59.25;;;;;;;;;;10000591;29;20084;-61
2021/04/20 15:25:31;;;;;;;80.47;71.20;;;;;;;;;;9999568;29;20091;-60
2021/04/20 15:30:33;;;;;;;38.15;34.00;;;;;;;;;;10000265;29;20115;-60
2021/04/20 15:35:32;;;;;;;47.15;39.28;;;;;;;;;;9999997;29;20052;-61
2021/04/20 15:40:31;;;;;;;84.85;59.03;;;;;;;;;;10000318;29;20076;-62
2021/04/20 15:45:30;;;;;;;30.70;23.13;;;;;;;;;;9999599;29;20083;-61
2021/04/20 15:50:29;;;;;;;17.77;13.63;;;;;;;;;;10000152;29;20075;-62
2021/04/20 15:55:28;;;;;;;27.38;20.73;;;;;;;;;;9999765;29;20052;-61
2021/04/20 16:00:29;;;;;;;20.55;15.63;;;;;;;;;;9999670;29;20426;-61
2021/04/20 16:05:30;;;;;;;47.33;33.88;;;;;;;;;;9999816;29;20087;-62
2021/04/20 16:10:27;;;;;;;67.13;49.38;;;;;;;;;;9999678;29;20076;-60
2021/04/20 16:15:27;;;;;;;38.80;27.95;;;;;;;;;;9999208;29;20086;-60
2021/04/20 16:20:27;;;;;;;85.90;55.65;;;;;;;;;;9999339;29;20525;-60
2021/04/20 16:25:28;;;;;;;77.80;56.05;;;;;;;;;;9998544;29;20083;-62
2021/04/20 16:30:27;;;;;;;91.15;66.03;;;;;;;;;;9998162;29;20083;-61
2021/04/20 16:35:27;;;;;;;44.38;34.67;;;;;;;;;;9998077;29;20044;-62
2021/04/20 16:40:30;;;;;;;28.70;25.25;;;;;;;;;;9996658;29;20084;-60
2021/04/20 16:45:31;;;;;;;42.22;34.25;;;;;;;;;;9997496;29;20068;-61
2021/04/20 16:50:36;;;;;;;33.78;25.02;;;;;;;;;;9994452;29;20056;-61
2021/04/20 16:55:40;;;;;;;26.02;21.23;;;;;;;;;;9994598;29;20091;-59
2021/04/20 17:00:45;;;;;;;15.10;13.50;;;;;;;;;;9997744;29;20144;-62
2021/04/20 17:05:54;;;;;;;16.50;14.80;;;;;;;;;;10012248;29;20079;-62
2021/04/20 17:10:54;;;;;;;38.70;31.65;;;;;;;;;;10021456;29;20083;-61
2021/04/20 17:16:00;;;;;;;9.57;8.48;;;;;;;;;;10005880;29;20071;-59
2021/04/20 17:21:16;;;;;;;16.65;14.07;;;;;;;;;;10029676;29;20083;-62
2021/04/20 17:26:16;;;;;;;23.33;17.83;;;;;;;;;;10005649;29;20086;-62
2021/04/20 17:31:38;;;;;;;26.83;22.15;;;;;;;;;;10014468;29;20094;-58
2021/04/20 17:36:39;;;;;;;24.67;21.70;;;;;;;;;;10015905;29;20495;-61
2021/04/20 17:41:39;;;;;;;12.15;10.88;;;;;;;;;;10029474;29;20484;-60
2021/04/20 17:46:40;;;;;;;11.80;8.68;;;;;;;;;;10043585;29;20074;-62
2021/04/20 17:51:58;;;;;;;34.25;25.35;;;;;;;;;;10042410;29;20051;-61
2021/04/20 17:57:01;;;;;;;15.98;13.85;;;;;;;;;;10042769;29;20062;-61
2021/04/20 18:02:00;;;;;;;12.95;10.88;;;;;;;;;;10041734;29;20079;-60
2021/04/20 18:07:06;;;;;;;14.82;13.25;;;;;;;;;;10041796;29;20036;-60
2021/04/20 18:12:20;;;;;;;13.82;12.43;;;;;;;;;;10041466;29;20087;-61
2021/04/20 18:17:24;;;;;;;51.45;36.25;;;;;;;;;;10040460;29;20048;-60
2021/04/20 18:22:26;;;;;;;34.95;26.30;;;;;;;;;;10041080;29;20075;-60
2021/04/20 18:27:38;;;;;;;26.50;20.15;;;;;;;;;;10041454;29;20452;-61
2021/04/20 18:32:42;;;;;;;22.75;17.02;;;;;;;;;;10041126;29;20449;-58
2021/04/20 18:37:48;;;;;;;36.90;22.53;;;;;;;;;;10040744;29;20043;-60
2021/04/20 18:42:48;;;;;;;36.08;24.83;;;;;;;;;;10039063;29;20079;-62
2021/04/20 18:47:55;;;;;;;22.20;15.50;;;;;;;;;;10040224;29;20071;-61
2021/04/20 18:53:01;;;;;;;12.43;10.88;;;;;;;;;;10040034;29;20075;-62
2021/04/20 18:58:02;;;;;;;13.25;10.40;;;;;;;;;;10040138;29;20052;-60
2021/04/20 19:03:08;;;;;;;31.02;19.83;;;;;;;;;;10040014;29;20071;-62
2021/04/20 19:08:16;;;;;;;65.18;40.42;;;;;;;;;;10021498;29;20080;-62
2021/04/20 19:13:31;;;;;;;61.13;39.75;;;;;;;;;;10024256;29;20067;-62
2021/04/20 19:18:28;;;;;;;;;;;;;;;;;;10021743;29;20039;-62
2021/04/20 19:23:35;;;;;;;31.15;23.98;;;;;;;;;;10000560;29;19951;-62
2021/04/20 19:28:40;;;;;;;20.17;15.45;;;;;;;;;;9999918;29;20526;-62
2021/04/20 19:33:40;;;;;;;15.00;13.20;;;;;;;;;;10007954;29;20485;-61
2021/04/20 19:38:43;;;;;;;17.52;13.90;;;;;;;;;;10017449;29;20532;-61
2021/04/20 19:43:42;;;;;;;34.63;21.48;;;;;;;;;;10004616;29;20163;-61
2021/04/20 19:48:41;;;;;;;91.55;75.65;;;;;;;;;;10012092;29;20546;-61
2021/04/20 19:53:41;;;;;;;29.77;24.52;;;;;;;;;;10002665;29;20076;-61
2021/04/20 19:58:40;;;;;;;21.23;16.48;;;;;;;;;;9999413;29;20412;-61
2021/04/20 20:03:38;;;;;;;16.85;13.70;;;;;;;;;;9999385;29;20087;-62
2021/04/20 20:08:36;;;;;;;11.13;9.63;;;;;;;;;;9999221;29;20052;-61
2021/04/20 20:13:40;;;;;;;10.65;9.55;;;;;;;;;;9998608;29;20095;-60
2021/04/20 20:18:38;;;;;;;9.82;8.48;;;;;;;;;;9997764;29;20055;-61
2021/04/20 20:23:40;;;;;;;8.93;7.55;;;;;;;;;;9998988;29;20083;-61
2021/04/20 20:28:38;;;;;;;8.38;7.45;;;;;;;;;;9998530;29;20099;-60
2021/04/20 20:33:40;;;;;;;8.50;6.78;;;;;;;;;;9998835;29;20048;-61
2021/04/20 20:38:38;;;;;;;7.55;6.80;;;;;;;;;;9998788;29;20076;-61
2021/04/20 20:43:41;;;;;;;7.82;6.65;;;;;;;;;;10002826;29;20083;-61
2021/04/20 20:48:41;;;;;;;43.92;32.20;;;;;;;;;;10006527;29;20074;-60
2021/04/20 20:53:40;;;;;;;12.13;10.98;;;;;;;;;;10005434;29;20052;-62
2021/04/20 20:58:42;;;;;;;17.92;14.85;;;;;;;;;;10004631;29;20072;-61
2021/04/20 21:03:45;;;;;;;8.80;7.93;;;;;;;;;;10006358;29;20087;-60
2021/04/20 21:08:43;;;;;;;15.35;13.95;;;;;;;;;;10005892;29;20060;-61
2021/04/20 21:13:41;;;;;;;11.90;10.70;;;;;;;;;;10005715;29;20083;-61
2021/04/20 21:18:40;;;;;;;9.85;8.05;;;;;;;;;;10005427;29;20051;-62
2021/04/20 21:23:42;;;;;;;7.35;6.75;;;;;;;;;;10004502;29;20087;-62
2021/04/20 21:28:41;;;;;;;41.45;27.20;;;;;;;;;;10004783;29;20099;-60
2021/04/20 21:33:40;;;;;;;9.75;8.75;;;;;;;;;;10005389;29;20080;-61
2021/04/20 21:38:40;;;;;;;19.42;17.83;;;;;;;;;;10005133;29;20091;-62
2021/04/20 21:43:43;;;;;;;9.55;8.65;;;;;;;;;;10004568;29;20079;-62
2021/04/20 21:48:42;;;;;;;10.43;9.48;;;;;;;;;;10004558;29;20546;-60
2021/04/20 21:53:46;;;;;;;14.05;12.68;;;;;;;;;;10003896;29;20055;-61
2021/04/20 21:58:44;;;;;;;15.45;14.05;;;;;;;;;;10003999;29;20265;-60
2021/04/20 22:03:44;;;;;;;11.43;10.40;;;;;;;;;;10004019;29;20090;-60
2021/04/20 22:08:58;;;;;;;14.10;12.90;;;;;;;;;;10004233;29;20421;-61
2021/04/20 22:13:56;;;;;;;20.08;18.38;;;;;;;;;;10002573;29;20052;-60
2021/04/20 22:18:55;;;;;;;41.58;38.00;;;;;;;;;;10003346;29;20079;-61
2021/04/20 22:23:53;;;;;;;10.20;9.30;;;;;;;;;;10003066;29;20080;-61
2021/04/20 22:28:52;;;;;;;9.30;8.50;;;;;;;;;;10001855;29;20060;-63
2021/04/20 22:33:51;;;;;;;7.40;6.70;;;;;;;;;;10002151;29;20048;-61
2021/04/20 22:38:58;;;;;;;6.85;6.25;;;;;;;;;;10002170;29;20094;-62
2021/04/20 22:43:58;;;;;;;6.80;5.95;;;;;;;;;;10001461;29;20094;-61
2021/04/20 22:48:58;;;;;;;9.63;8.75;;;;;;;;;;10002187;29;20418;-59
2021/04/20 22:53:58;;;;;;;6.75;6.15;;;;;;;;;;10000362;29;20410;-60
2021/04/20 22:58:57;;;;;;;6.70;6.07;;;;;;;;;;10001529;29;20517;-60
2021/04/20 23:03:59;;;;;;;9.10;6.70;;;;;;;;;;10000022;29;20099;-60
2021/04/20 23:08:59;;;;;;;8.13;7.32;;;;;;;;;;10001576;29;20079;-60
2021/04/20 23:14:00;;;;;;;7.47;6.68;;;;;;;;;;10000821;29;20048;-58
2021/04/20 23:19:00;;;;;;;7.78;6.40;;;;;;;;;;10001222;29;20071;-60
2021/04/20 23:24:00;;;;;;;7.97;7.18;;;;;;;;;;10000977;29;20075;-60
2021/04/20 23:29:02;;;;;;;10.25;7.07;;;;;;;;;;9999640;29;20095;-60
2021/04/20 23:34:00;;;;;;;8.05;7.03;;;;;;;;;;10000132;29;20138;-61
2021/04/20 23:38:58;;;;;;;9.05;7.75;;;;;;;;;;10000272;29;20052;-60
2021/04/20 23:43:58;;;;;;;8.25;7.35;;;;;;;;;;10000205;29;20454;-60
2021/04/20 23:48:56;;;;;;;8.82;7.82;;;;;;;;;;9999429;29;20052;-61
2021/04/20 23:53:55;;;;;;;9.07;8.18;;;;;;;;;;10000016;29;20442;-60
2021/04/20 23:58:54;;;;;;;9.65;8.50;;;;;;;;;;9999764;29;20047;-60
